sensor_id;sensor_type;location;lat;lon;timestamp;pressure;altitude;pressure_sealevel;temperature;humidity
3598;BME280;1813;52.016;8.714;2024-02-21T00:01:18;-16261.94;;;-139.71;97.81
3598;BME280;1813;52.016;8.714;2024-02-21T00:03:54;-16261.94;;;-139.71;98.03
3598;BME280;1813;52.016;8.714;2024-02-21T00:06:27;-16261.94;;;-139.71;97.40
3598;BME280;1813;52.016;8.714;2024-02-21T00:09:00;-16261.94;;;-139.71;97.40
3598;BME280;1813;52.016;8.714;2024-02-21T00:11:34;-16261.94;;;-139.71;97.26
3598;BME280;1813;52.016;8.714;2024-02-21T00:14:07;-16261.94;;;-139.71;96.92
3598;BME280;1813;52.016;8.714;2024-02-21T00:16:40;-16261.94;;;-139.71;96.83
3598;BME280;1813;52.016;8.714;2024-02-21T00:19:16;-16261.94;;;-139.71;96.69
3598;BME280;1813;52.016;8.714;2024-02-21T00:21:49;-16261.94;;;-139.71;96.51
3598;BME280;1813;52.016;8.714;2024-02-21T00:24:23;-16261.94;;;-139.71;96.48
3598;BME280;1813;52.016;8.714;2024-02-21T00:26:56;-16261.94;;;-139.71;96.44
3598;BME280;1813;52.016;8.714;2024-02-21T00:29:29;-16261.94;;;-139.71;96.44
3598;BME280;1813;52.016;8.714;2024-02-21T00:32:03;-16261.94;;;-139.71;96.41
3598;BME280;1813;52.016;8.714;2024-02-21T00:34:39;-16261.94;;;-139.71;96.05
3598;BME280;1813;52.016;8.714;2024-02-21T00:37:13;-16261.94;;;-139.71;95.82
3598;BME280;1813;52.016;8.714;2024-02-21T00:39:46;-16261.94;;;-139.71;96.15
3598;BME280;1813;52.016;8.714;2024-02-21T00:42:20;-16261.94;;;-139.71;95.93
3598;BME280;1813;52.016;8.714;2024-02-21T00:44:53;-16261.94;;;-139.71;95.74
3598;BME280;1813;52.016;8.714;2024-02-21T00:47:26;-16261.94;;;-139.71;95.74
3598;BME280;1813;52.016;8.714;2024-02-21T00:50:03;-16261.94;;;-139.71;95.87
3598;BME280;1813;52.016;8.714;2024-02-21T00:52:37;-16261.94;;;-139.71;95.77
3598;BME280;1813;52.016;8.714;2024-02-21T00:55:10;-16261.94;;;-139.71;95.40
3598;BME280;1813;52.016;8.714;2024-02-21T00:57:44;-16261.94;;;-139.71;95.72
3598;BME280;1813;52.016;8.714;2024-02-21T01:00:18;-16261.94;;;-139.71;95.46
3598;BME280;1813;52.016;8.714;2024-02-21T01:02:52;-16261.94;;;-139.71;95.70
3598;BME280;1813;52.016;8.714;2024-02-21T01:05:28;-16261.94;;;-139.71;95.64
3598;BME280;1813;52.016;8.714;2024-02-21T01:08:02;-16261.94;;;-139.71;95.53
3598;BME280;1813;52.016;8.714;2024-02-21T01:10:36;-16261.94;;;-139.71;95.30
3598;BME280;1813;52.016;8.714;2024-02-21T01:13:09;-16261.94;;;-139.71;95.34
3598;BME280;1813;52.016;8.714;2024-02-21T01:15:42;-16261.94;;;-139.71;95.32
3598;BME280;1813;52.016;8.714;2024-02-21T01:18:15;-16261.94;;;-139.71;95.39
3598;BME280;1813;52.016;8.714;2024-02-21T01:20:51;-16261.94;;;-139.71;95.41
3598;BME280;1813;52.016;8.714;2024-02-21T01:23:25;-16261.94;;;-139.71;95.44
3598;BME280;1813;52.016;8.714;2024-02-21T01:25:58;-16261.94;;;-139.71;95.25
3598;BME280;1813;52.016;8.714;2024-02-21T01:28:31;-16261.94;;;-139.71;95.40
3598;BME280;1813;52.016;8.714;2024-02-21T01:31:05;-16261.94;;;-139.71;95.46
3598;BME280;1813;52.016;8.714;2024-02-21T01:33:38;-16261.94;;;-139.71;95.37
3598;BME280;1813;52.016;8.714;2024-02-21T01:36:14;-16261.94;;;-139.71;95.32
3598;BME280;1813;52.016;8.714;2024-02-21T01:38:47;-16261.94;;;-139.71;95.09
3598;BME280;1813;52.016;8.714;2024-02-21T01:41:20;-16261.94;;;-139.71;94.93
3598;BME280;1813;52.016;8.714;2024-02-21T01:43:54;-16261.94;;;-139.71;94.98
3598;BME280;1813;52.016;8.714;2024-02-21T01:46:27;-16261.94;;;-139.71;94.89
3598;BME280;1813;52.016;8.714;2024-02-21T01:49:01;-16261.94;;;-139.71;94.83
3598;BME280;1813;52.016;8.714;2024-02-21T01:51:38;-16261.94;;;-139.71;94.55
3598;BME280;1813;52.016;8.714;2024-02-21T01:54:13;-16261.94;;;-139.71;94.51
3598;BME280;1813;52.016;8.714;2024-02-21T01:56:48;-16261.94;;;-139.71;94.61
3598;BME280;1813;52.016;8.714;2024-02-21T01:59:21;-16261.94;;;-139.71;94.51
3598;BME280;1813;52.016;8.714;2024-02-21T02:01:55;-16261.94;;;-139.71;94.40
3598;BME280;1813;52.016;8.714;2024-02-21T02:04:29;-16261.94;;;-139.71;94.35
3598;BME280;1813;52.016;8.714;2024-02-21T02:07:06;-16261.94;;;-139.71;94.45
3598;BME280;1813;52.016;8.714;2024-02-21T02:09:40;-16261.94;;;-139.71;94.50
3598;BME280;1813;52.016;8.714;2024-02-21T02:12:13;-16261.94;;;-139.71;94.65
3598;BME280;1813;52.016;8.714;2024-02-21T02:14:57;-16261.94;;;-139.71;94.94
3598;BME280;1813;52.016;8.714;2024-02-21T02:17:31;-16261.94;;;-139.71;94.78
3598;BME280;1813;52.016;8.714;2024-02-21T02:20:05;-16261.94;;;-139.71;94.71
3598;BME280;1813;52.016;8.714;2024-02-21T02:22:42;-16261.94;;;-139.71;94.78
3598;BME280;1813;52.016;8.714;2024-02-21T02:25:19;-16261.94;;;-139.71;94.83
3598;BME280;1813;52.016;8.714;2024-02-21T02:27:53;-16261.94;;;-139.71;94.85
3598;BME280;1813;52.016;8.714;2024-02-21T02:30:26;-16261.94;;;-139.71;94.67
3598;BME280;1813;52.016;8.714;2024-02-21T02:33:00;-16261.94;;;-139.71;94.61
3598;BME280;1813;52.016;8.714;2024-02-21T02:35:33;-16261.94;;;-139.71;94.38
3598;BME280;1813;52.016;8.714;2024-02-21T02:38:07;-16261.94;;;-139.71;94.53
3598;BME280;1813;52.016;8.714;2024-02-21T02:40:44;-16261.94;;;-139.71;94.36
3598;BME280;1813;52.016;8.714;2024-02-21T02:43:17;-16261.94;;;-139.71;94.60
3598;BME280;1813;52.016;8.714;2024-02-21T02:45:51;-16261.94;;;-139.71;94.38
3598;BME280;1813;52.016;8.714;2024-02-21T02:48:24;-16261.94;;;-139.71;94.45
3598;BME280;1813;52.016;8.714;2024-02-21T02:50:57;-16261.94;;;-139.71;94.65
3598;BME280;1813;52.016;8.714;2024-02-21T02:53:31;-16261.94;;;-139.71;94.48
3598;BME280;1813;52.016;8.714;2024-02-21T02:56:07;-16261.94;;;-139.71;94.35
3598;BME280;1813;52.016;8.714;2024-02-21T02:58:40;-16261.94;;;-139.71;94.33
3598;BME280;1813;52.016;8.714;2024-02-21T03:01:13;-16261.94;;;-139.71;94.40
3598;BME280;1813;52.016;8.714;2024-02-21T03:03:46;-16261.94;;;-139.71;94.35
3598;BME280;1813;52.016;8.714;2024-02-21T03:06:20;-16261.94;;;-139.71;94.29
3598;BME280;1813;52.016;8.714;2024-02-21T03:08:53;-16261.94;;;-139.71;94.13
3598;BME280;1813;52.016;8.714;2024-02-21T03:11:29;-16261.94;;;-139.71;94.17
3598;BME280;1813;52.016;8.714;2024-02-21T03:14:02;-16261.94;;;-139.71;94.10
3598;BME280;1813;52.016;8.714;2024-02-21T03:16:36;-16261.94;;;-139.71;94.15
3598;BME280;1813;52.016;8.714;2024-02-21T03:19:09;-16261.94;;;-139.71;94.05
3598;BME280;1813;52.016;8.714;2024-02-21T03:21:42;-16261.94;;;-139.71;94.29
3598;BME280;1813;52.016;8.714;2024-02-21T03:24:16;-16261.94;;;-139.71;94.18
3598;BME280;1813;52.016;8.714;2024-02-21T03:26:51;-16261.94;;;-139.71;93.91
3598;BME280;1813;52.016;8.714;2024-02-21T03:29:25;-16261.94;;;-139.71;94.25
3598;BME280;1813;52.016;8.714;2024-02-21T03:31:58;-16261.94;;;-139.71;94.40
3598;BME280;1813;52.016;8.714;2024-02-21T03:34:32;-16261.94;;;-139.71;94.18
3598;BME280;1813;52.016;8.714;2024-02-21T03:37:05;-16261.94;;;-139.71;94.01
3598;BME280;1813;52.016;8.714;2024-02-21T03:39:38;-16261.94;;;-139.71;94.40
3598;BME280;1813;52.016;8.714;2024-02-21T03:42:14;-16261.94;;;-139.71;94.21
3598;BME280;1813;52.016;8.714;2024-02-21T03:44:47;-16261.94;;;-139.71;94.14
3598;BME280;1813;52.016;8.714;2024-02-21T03:47:21;-16261.94;;;-139.71;94.07
3598;BME280;1813;52.016;8.714;2024-02-21T03:49:54;-16261.94;;;-139.71;93.99
3598;BME280;1813;52.016;8.714;2024-02-21T03:52:28;-16261.94;;;-139.71;93.91
3598;BME280;1813;52.016;8.714;2024-02-21T03:55:02;-16261.94;;;-139.71;93.76
3598;BME280;1813;52.016;8.714;2024-02-21T03:57:38;-16261.94;;;-139.71;93.61
3598;BME280;1813;52.016;8.714;2024-02-21T04:00:12;-16261.94;;;-139.71;93.65
3598;BME280;1813;52.016;8.714;2024-02-21T04:02:45;-16261.94;;;-139.71;93.69
3598;BME280;1813;52.016;8.714;2024-02-21T04:05:19;-16261.94;;;-139.71;93.46
3598;BME280;1813;52.016;8.714;2024-02-21T04:07:53;-16261.94;;;-139.71;93.40
3598;BME280;1813;52.016;8.714;2024-02-21T04:10:26;-16261.94;;;-139.71;93.49
3598;BME280;1813;52.016;8.714;2024-02-21T04:13:02;-16261.94;;;-139.71;93.49
3598;BME280;1813;52.016;8.714;2024-02-21T04:15:36;-16261.94;;;-139.71;93.35
3598;BME280;1813;52.016;8.714;2024-02-21T04:18:09;-16261.94;;;-139.71;93.26
3598;BME280;1813;52.016;8.714;2024-02-21T04:20:43;-16261.94;;;-139.71;92.93
3598;BME280;1813;52.016;8.714;2024-02-21T04:23:16;-16261.94;;;-139.71;93.02
3598;BME280;1813;52.016;8.714;2024-02-21T04:25:49;-16261.94;;;-139.71;93.32
3598;BME280;1813;52.016;8.714;2024-02-21T04:28:25;-16261.94;;;-139.71;93.00
3598;BME280;1813;52.016;8.714;2024-02-21T04:30:58;-16261.94;;;-139.71;92.80
3598;BME280;1813;52.016;8.714;2024-02-21T04:33:32;-16261.94;;;-139.71;92.64
3598;BME280;1813;52.016;8.714;2024-02-21T04:36:05;-16261.94;;;-139.71;92.74
3598;BME280;1813;52.016;8.714;2024-02-21T04:38:39;-16261.94;;;-139.71;92.76
3598;BME280;1813;52.016;8.714;2024-02-21T04:41:13;-16261.94;;;-139.71;92.75
3598;BME280;1813;52.016;8.714;2024-02-21T04:43:48;-16261.94;;;-139.71;92.78
3598;BME280;1813;52.016;8.714;2024-02-21T04:46:22;-16261.94;;;-139.71;92.48
3598;BME280;1813;52.016;8.714;2024-02-21T04:48:55;-16261.94;;;-139.71;92.49
3598;BME280;1813;52.016;8.714;2024-02-21T04:51:28;-16261.94;;;-139.71;92.81
3598;BME280;1813;52.016;8.714;2024-02-21T04:54:02;-16261.94;;;-139.71;93.05
3598;BME280;1813;52.016;8.714;2024-02-21T04:56:36;-16261.94;;;-139.71;93.11
3598;BME280;1813;52.016;8.714;2024-02-21T04:59:11;-16261.94;;;-139.71;93.13
3598;BME280;1813;52.016;8.714;2024-02-21T05:01:45;-16261.94;;;-139.71;93.03
3598;BME280;1813;52.016;8.714;2024-02-21T05:04:18;-16261.94;;;-139.71;93.34
3598;BME280;1813;52.016;8.714;2024-02-21T05:06:51;-16261.94;;;-139.71;93.54
3598;BME280;1813;52.016;8.714;2024-02-21T05:09:25;-16261.94;;;-139.71;93.67
3598;BME280;1813;52.016;8.714;2024-02-21T05:11:58;-16261.94;;;-139.71;93.37
3598;BME280;1813;52.016;8.714;2024-02-21T05:14:34;-16261.94;;;-139.71;93.46
3598;BME280;1813;52.016;8.714;2024-02-21T05:17:07;-16261.94;;;-139.71;93.20
3598;BME280;1813;52.016;8.714;2024-02-21T05:19:41;-16261.94;;;-139.71;93.28
3598;BME280;1813;52.016;8.714;2024-02-21T05:22:14;-16261.94;;;-139.71;93.31
3598;BME280;1813;52.016;8.714;2024-02-21T05:24:47;-16261.94;;;-139.71;93.40
3598;BME280;1813;52.016;8.714;2024-02-21T05:27:21;-16261.94;;;-139.71;93.83
3598;BME280;1813;52.016;8.714;2024-02-21T05:29:56;-16261.94;;;-139.71;94.25
3598;BME280;1813;52.016;8.714;2024-02-21T05:32:30;-16261.94;;;-139.71;94.19
3598;BME280;1813;52.016;8.714;2024-02-21T05:35:03;-16261.94;;;-139.71;94.02
3598;BME280;1813;52.016;8.714;2024-02-21T05:37:37;-16261.94;;;-139.71;94.23
3598;BME280;1813;52.016;8.714;2024-02-21T05:40:11;-16261.94;;;-139.71;94.42
3598;BME280;1813;52.016;8.714;2024-02-21T05:42:45;-16261.94;;;-139.71;94.93
3598;BME280;1813;52.016;8.714;2024-02-21T05:45:21;-16261.94;;;-139.71;95.09
3598;BME280;1813;52.016;8.714;2024-02-21T05:47:54;-16261.94;;;-139.71;95.29
3598;BME280;1813;52.016;8.714;2024-02-21T05:50:28;-16261.94;;;-139.71;95.78
3598;BME280;1813;52.016;8.714;2024-02-21T05:53:02;-16261.94;;;-139.71;95.57
3598;BME280;1813;52.016;8.714;2024-02-21T05:55:36;-16261.94;;;-139.71;95.54
3598;BME280;1813;52.016;8.714;2024-02-21T05:58:09;-16261.94;;;-139.71;95.66
3598;BME280;1813;52.016;8.714;2024-02-21T06:00:46;-16261.94;;;-139.71;95.74
3598;BME280;1813;52.016;8.714;2024-02-21T06:03:19;-16261.94;;;-139.71;95.88
3598;BME280;1813;52.016;8.714;2024-02-21T06:05:53;-16261.94;;;-139.71;96.25
3598;BME280;1813;52.016;8.714;2024-02-21T06:08:26;-16261.94;;;-139.71;96.33
3598;BME280;1813;52.016;8.714;2024-02-21T06:10:59;-16261.94;;;-139.71;96.13
3598;BME280;1813;52.016;8.714;2024-02-21T06:13:33;-16261.94;;;-139.71;96.00
3598;BME280;1813;52.016;8.714;2024-02-21T06:16:09;-16261.94;;;-139.71;96.16
3598;BME280;1813;52.016;8.714;2024-02-21T06:18:42;-16261.94;;;-139.71;96.20
3598;BME280;1813;52.016;8.714;2024-02-21T06:21:15;-16261.94;;;-139.71;96.13
3598;BME280;1813;52.016;8.714;2024-02-21T06:23:49;-16261.94;;;-139.71;96.00
3598;BME280;1813;52.016;8.714;2024-02-21T06:26:22;-16261.94;;;-139.71;95.98
3598;BME280;1813;52.016;8.714;2024-02-21T06:28:56;-16261.94;;;-139.71;95.85
3598;BME280;1813;52.016;8.714;2024-02-21T06:31:32;-16261.94;;;-139.71;95.59
3598;BME280;1813;52.016;8.714;2024-02-21T06:34:06;-16261.94;;;-139.71;95.64
3598;BME280;1813;52.016;8.714;2024-02-21T06:36:39;-16261.94;;;-139.71;95.59
3598;BME280;1813;52.016;8.714;2024-02-21T06:39:12;-16261.94;;;-139.71;95.40
3598;BME280;1813;52.016;8.714;2024-02-21T06:41:45;-16261.94;;;-139.71;95.34
3598;BME280;1813;52.016;8.714;2024-02-21T06:44:21;-16261.94;;;-139.71;95.06
3598;BME280;1813;52.016;8.714;2024-02-21T06:46:57;-16261.94;;;-139.71;94.87
3598;BME280;1813;52.016;8.714;2024-02-21T06:49:30;-16261.94;;;-139.71;94.86
3598;BME280;1813;52.016;8.714;2024-02-21T06:52:04;-16261.94;;;-139.71;94.78
3598;BME280;1813;52.016;8.714;2024-02-21T06:54:38;-16261.94;;;-139.71;94.45
3598;BME280;1813;52.016;8.714;2024-02-21T06:57:12;-16261.94;;;-139.71;94.17
3598;BME280;1813;52.016;8.714;2024-02-21T06:59:45;-16261.94;;;-139.71;93.73
3598;BME280;1813;52.016;8.714;2024-02-21T07:02:21;-16261.94;;;-139.71;93.64
3598;BME280;1813;52.016;8.714;2024-02-21T07:04:55;-16261.94;;;-139.71;93.14
3598;BME280;1813;52.016;8.714;2024-02-21T07:07:28;-16261.94;;;-139.71;92.73
3598;BME280;1813;52.016;8.714;2024-02-21T07:10:01;-16261.94;;;-139.71;92.26
3598;BME280;1813;52.016;8.714;2024-02-21T07:12:35;-16261.94;;;-139.71;92.00
3598;BME280;1813;52.016;8.714;2024-02-21T07:15:09;-16261.94;;;-139.71;91.79
3598;BME280;1813;52.016;8.714;2024-02-21T07:17:44;-16261.94;;;-139.71;91.54
3598;BME280;1813;52.016;8.714;2024-02-21T07:20:18;-16261.94;;;-139.71;91.20
3598;BME280;1813;52.016;8.714;2024-02-21T07:22:51;-16261.94;;;-139.71;91.31
3598;BME280;1813;52.016;8.714;2024-02-21T07:25:25;-16261.94;;;-139.71;90.79
3598;BME280;1813;52.016;8.714;2024-02-21T07:27:58;-16261.94;;;-139.71;90.42
3598;BME280;1813;52.016;8.714;2024-02-21T07:30:31;-16261.94;;;-139.71;90.39
3598;BME280;1813;52.016;8.714;2024-02-21T07:33:07;-16261.94;;;-139.71;90.49
3598;BME280;1813;52.016;8.714;2024-02-21T07:35:41;-16261.94;;;-139.71;90.27
3598;BME280;1813;52.016;8.714;2024-02-21T07:38:15;-16261.94;;;-139.71;90.19
3598;BME280;1813;52.016;8.714;2024-02-21T07:40:48;-16261.94;;;-139.71;89.77
3598;BME280;1813;52.016;8.714;2024-02-21T07:43:22;-16261.94;;;-139.71;89.98
3598;BME280;1813;52.016;8.714;2024-02-21T07:45:56;-16261.94;;;-139.71;90.24
3598;BME280;1813;52.016;8.714;2024-02-21T07:48:32;-16261.94;;;-139.71;89.81
3598;BME280;1813;52.016;8.714;2024-02-21T07:51:07;-16261.94;;;-139.71;89.75
3598;BME280;1813;52.016;8.714;2024-02-21T07:53:41;-16261.94;;;-139.71;89.29
3598;BME280;1813;52.016;8.714;2024-02-21T07:56:16;-16261.94;;;-139.71;89.42
3598;BME280;1813;52.016;8.714;2024-02-21T07:58:49;-16261.94;;;-139.71;89.29
3598;BME280;1813;52.016;8.714;2024-02-21T08:01:23;-16261.94;;;-139.71;88.95
3598;BME280;1813;52.016;8.714;2024-02-21T08:03:58;-16261.94;;;-139.71;88.95
3598;BME280;1813;52.016;8.714;2024-02-21T08:06:34;-16261.94;;;-139.71;88.76
3598;BME280;1813;52.016;8.714;2024-02-21T08:09:07;-16261.94;;;-139.71;88.50
3598;BME280;1813;52.016;8.714;2024-02-21T08:11:40;-16261.94;;;-139.71;88.60
3598;BME280;1813;52.016;8.714;2024-02-21T08:14:14;-16261.94;;;-139.71;88.58
3598;BME280;1813;52.016;8.714;2024-02-21T08:16:48;-16261.94;;;-139.71;88.22
3598;BME280;1813;52.016;8.714;2024-02-21T08:19:24;-16261.94;;;-139.71;88.27
3598;BME280;1813;52.016;8.714;2024-02-21T08:21:57;-16261.94;;;-139.71;88.20
3598;BME280;1813;52.016;8.714;2024-02-21T08:24:31;-16261.94;;;-139.71;88.27
3598;BME280;1813;52.016;8.714;2024-02-21T08:27:04;-16261.94;;;-139.71;87.85
3598;BME280;1813;52.016;8.714;2024-02-21T08:29:37;-16261.94;;;-139.71;87.24
3598;BME280;1813;52.016;8.714;2024-02-21T08:32:11;-16261.94;;;-139.71;87.22
3598;BME280;1813;52.016;8.714;2024-02-21T08:34:47;-16261.94;;;-139.71;86.80
3598;BME280;1813;52.016;8.714;2024-02-21T08:37:20;-16261.94;;;-139.71;87.11
3598;BME280;1813;52.016;8.714;2024-02-21T08:39:53;-16261.94;;;-139.71;86.55
3598;BME280;1813;52.016;8.714;2024-02-21T08:42:27;-16261.94;;;-139.71;86.11
3598;BME280;1813;52.016;8.714;2024-02-21T08:45:00;-16261.94;;;-139.71;85.98
3598;BME280;1813;52.016;8.714;2024-02-21T08:47:33;-16261.94;;;-139.71;85.61
3598;BME280;1813;52.016;8.714;2024-02-21T08:50:10;-16261.94;;;-139.71;85.42
3598;BME280;1813;52.016;8.714;2024-02-21T08:52:44;-16261.94;;;-139.71;84.49
3598;BME280;1813;52.016;8.714;2024-02-21T08:55:17;-16261.94;;;-139.71;84.26
3598;BME280;1813;52.016;8.714;2024-02-21T08:57:50;-16261.94;;;-139.71;84.04
3598;BME280;1813;52.016;8.714;2024-02-21T09:00:24;-16261.94;;;-139.71;83.88
3598;BME280;1813;52.016;8.714;2024-02-21T09:02:57;-16261.94;;;-139.71;83.77
3598;BME280;1813;52.016;8.714;2024-02-21T09:05:33;-16261.94;;;-139.71;83.34
3598;BME280;1813;52.016;8.714;2024-02-21T09:08:07;-16261.94;;;-139.71;82.59
3598;BME280;1813;52.016;8.714;2024-02-21T09:10:40;-16261.94;;;-139.71;82.48
3598;BME280;1813;52.016;8.714;2024-02-21T09:13:13;-16261.94;;;-139.71;82.64
3598;BME280;1813;52.016;8.714;2024-02-21T09:15:47;-16261.94;;;-139.71;82.19
3598;BME280;1813;52.016;8.714;2024-02-21T09:18:21;-16261.94;;;-139.71;81.40
3598;BME280;1813;52.016;8.714;2024-02-21T09:20:57;-16261.94;;;-139.71;81.57
3598;BME280;1813;52.016;8.714;2024-02-21T09:23:30;-16261.94;;;-139.71;80.54
3598;BME280;1813;52.016;8.714;2024-02-21T09:26:04;-16261.94;;;-139.71;80.84
3598;BME280;1813;52.016;8.714;2024-02-21T09:28:38;-16261.94;;;-139.71;80.83
3598;BME280;1813;52.016;8.714;2024-02-21T09:31:11;-16261.94;;;-139.71;80.82
3598;BME280;1813;52.016;8.714;2024-02-21T09:33:44;-16261.94;;;-139.71;80.76
3598;BME280;1813;52.016;8.714;2024-02-21T09:36:20;-16261.94;;;-139.71;80.47
3598;BME280;1813;52.016;8.714;2024-02-21T09:38:54;-16261.94;;;-139.71;80.79
3598;BME280;1813;52.016;8.714;2024-02-21T09:41:27;-16261.94;;;-139.71;80.06
3598;BME280;1813;52.016;8.714;2024-02-21T09:44:01;-16261.94;;;-139.71;79.96
3598;BME280;1813;52.016;8.714;2024-02-21T09:46:42;-16261.94;;;-139.71;78.49
3598;BME280;1813;52.016;8.714;2024-02-21T09:49:23;-16261.94;;;-139.71;78.46
3598;BME280;1813;52.016;8.714;2024-02-21T09:52:06;-16261.94;;;-139.71;78.46
3598;BME280;1813;52.016;8.714;2024-02-21T09:54:40;-16261.94;;;-139.71;77.28
3598;BME280;1813;52.016;8.714;2024-02-21T09:57:15;-16261.94;;;-139.71;77.84
3598;BME280;1813;52.016;8.714;2024-02-21T09:59:48;-16261.94;;;-139.71;77.01
3598;BME280;1813;52.016;8.714;2024-02-21T10:02:23;-16261.94;;;-139.71;76.82
3598;BME280;1813;52.016;8.714;2024-02-21T10:04:56;-16261.94;;;-139.71;75.79
3598;BME280;1813;52.016;8.714;2024-02-21T10:07:32;-16261.94;;;-139.71;74.96
3598;BME280;1813;52.016;8.714;2024-02-21T10:10:07;-16261.94;;;-139.71;74.36
3598;BME280;1813;52.016;8.714;2024-02-21T10:12:48;-16261.94;;;-139.71;73.75
3598;BME280;1813;52.016;8.714;2024-02-21T10:15:22;-16261.94;;;-139.71;73.31
3598;BME280;1813;52.016;8.714;2024-02-21T10:18:00;-16261.94;;;-139.71;72.87
3598;BME280;1813;52.016;8.714;2024-02-21T10:20:34;-16261.94;;;-139.71;72.61
3598;BME280;1813;52.016;8.714;2024-02-21T10:23:09;-16261.94;;;-139.71;71.63
3598;BME280;1813;52.016;8.714;2024-02-21T10:25:43;-16261.94;;;-139.71;70.81
3598;BME280;1813;52.016;8.714;2024-02-21T10:28:17;-16261.94;;;-139.71;70.87
3598;BME280;1813;52.016;8.714;2024-02-21T10:30:53;-16261.94;;;-139.71;71.35
3598;BME280;1813;52.016;8.714;2024-02-21T10:33:26;-16261.94;;;-139.71;70.12
3598;BME280;1813;52.016;8.714;2024-02-21T10:36:09;-16261.94;;;-139.71;70.59
3598;BME280;1813;52.016;8.714;2024-02-21T10:38:45;-16261.94;;;-139.71;71.59
3598;BME280;1813;52.016;8.714;2024-02-21T10:41:20;-16261.94;;;-139.71;71.66
3598;BME280;1813;52.016;8.714;2024-02-21T10:43:54;-16261.94;;;-139.71;71.45
3598;BME280;1813;52.016;8.714;2024-02-21T10:46:29;-16261.94;;;-139.71;71.11
3598;BME280;1813;52.016;8.714;2024-02-21T10:49:10;-16261.94;;;-139.71;71.14
3598;BME280;1813;52.016;8.714;2024-02-21T10:51:46;-16261.94;;;-139.71;71.56
3598;BME280;1813;52.016;8.714;2024-02-21T10:54:34;-16261.94;;;-139.71;71.86
3598;BME280;1813;52.016;8.714;2024-02-21T10:57:12;-16261.94;;;-139.71;72.58
3598;BME280;1813;52.016;8.714;2024-02-21T10:59:48;-16261.94;;;-139.71;72.59
3598;BME280;1813;52.016;8.714;2024-02-21T11:02:22;-16261.94;;;-139.71;73.24
3598;BME280;1813;52.016;8.714;2024-02-21T11:04:55;-16261.94;;;-139.71;73.50
3598;BME280;1813;52.016;8.714;2024-02-21T11:07:30;-16261.94;;;-139.71;73.88
3598;BME280;1813;52.016;8.714;2024-02-21T11:10:20;-16261.94;;;-139.71;73.58
3598;BME280;1813;52.016;8.714;2024-02-21T11:12:53;-16261.94;;;-139.71;73.93
3598;BME280;1813;52.016;8.714;2024-02-21T11:15:27;-16261.94;;;-139.71;74.13
3598;BME280;1813;52.016;8.714;2024-02-21T11:18:01;-16261.94;;;-139.71;74.40
3598;BME280;1813;52.016;8.714;2024-02-21T11:20:35;-16261.94;;;-139.71;74.98
3598;BME280;1813;52.016;8.714;2024-02-21T11:23:09;-16261.94;;;-139.71;75.13
3598;BME280;1813;52.016;8.714;2024-02-21T11:25:45;-16261.94;;;-139.71;77.05
3598;BME280;1813;52.016;8.714;2024-02-21T11:28:25;-16261.94;;;-139.71;75.22
3598;BME280;1813;52.016;8.714;2024-02-21T11:31:06;-16261.94;;;-139.71;75.71
3598;BME280;1813;52.016;8.714;2024-02-21T11:33:40;-16261.94;;;-139.71;76.13
3598;BME280;1813;52.016;8.714;2024-02-21T11:36:23;-16261.94;;;-139.71;76.29
3598;BME280;1813;52.016;8.714;2024-02-21T11:39:03;-16261.94;;;-139.71;75.38
3598;BME280;1813;52.016;8.714;2024-02-21T11:41:40;-16261.94;;;-139.71;75.58
3598;BME280;1813;52.016;8.714;2024-02-21T11:44:13;-16261.94;;;-139.71;74.81
3598;BME280;1813;52.016;8.714;2024-02-21T11:46:46;-16261.94;;;-139.71;75.17
3598;BME280;1813;52.016;8.714;2024-02-21T11:49:19;-16261.94;;;-139.71;76.04
3598;BME280;1813;52.016;8.714;2024-02-21T11:51:59;-16261.94;;;-139.71;75.19
3598;BME280;1813;52.016;8.714;2024-02-21T11:54:34;-16261.94;;;-139.71;75.65
3598;BME280;1813;52.016;8.714;2024-02-21T11:57:10;-16261.94;;;-139.71;75.80
3598;BME280;1813;52.016;8.714;2024-02-21T11:59:44;-16261.94;;;-139.71;76.66
3598;BME280;1813;52.016;8.714;2024-02-21T12:02:19;-16261.94;;;-139.71;77.19
3598;BME280;1813;52.016;8.714;2024-02-21T12:04:52;-16261.94;;;-139.71;77.67
3598;BME280;1813;52.016;8.714;2024-02-21T12:07:26;-16261.94;;;-139.71;76.93
3598;BME280;1813;52.016;8.714;2024-02-21T12:10:00;-16261.94;;;-139.71;76.35
3598;BME280;1813;52.016;8.714;2024-02-21T12:12:36;-16261.94;;;-139.71;76.30
3598;BME280;1813;52.016;8.714;2024-02-21T12:15:10;-16261.94;;;-139.71;77.09
3598;BME280;1813;52.016;8.714;2024-02-21T12:17:44;-16261.94;;;-139.71;76.75
3598;BME280;1813;52.016;8.714;2024-02-21T12:20:17;-16261.94;;;-139.71;76.51
3598;BME280;1813;52.016;8.714;2024-02-21T12:22:51;-16261.94;;;-139.71;76.48
3598;BME280;1813;52.016;8.714;2024-02-21T12:25:25;-16261.94;;;-139.71;75.85
3598;BME280;1813;52.016;8.714;2024-02-21T12:28:01;-16261.94;;;-139.71;75.26
3598;BME280;1813;52.016;8.714;2024-02-21T12:30:35;-16261.94;;;-139.71;75.85
3598;BME280;1813;52.016;8.714;2024-02-21T12:33:10;-16261.94;;;-139.71;75.31
3598;BME280;1813;52.016;8.714;2024-02-21T12:35:44;-16261.94;;;-139.71;75.96
3598;BME280;1813;52.016;8.714;2024-02-21T12:38:19;-16261.94;;;-139.71;76.05
3598;BME280;1813;52.016;8.714;2024-02-21T12:40:53;-16261.94;;;-139.71;76.35
3598;BME280;1813;52.016;8.714;2024-02-21T12:43:30;-16261.94;;;-139.71;76.32
3598;BME280;1813;52.016;8.714;2024-02-21T12:46:04;-16261.94;;;-139.71;76.72
3598;BME280;1813;52.016;8.714;2024-02-21T12:48:38;-16261.94;;;-139.71;77.22
3598;BME280;1813;52.016;8.714;2024-02-21T12:51:11;-16261.94;;;-139.71;77.14
3598;BME280;1813;52.016;8.714;2024-02-21T12:53:46;-16261.94;;;-139.71;77.99
3598;BME280;1813;52.016;8.714;2024-02-21T12:56:20;-16261.94;;;-139.71;78.27
3598;BME280;1813;52.016;8.714;2024-02-21T12:58:55;-16261.94;;;-139.71;78.10
3598;BME280;1813;52.016;8.714;2024-02-21T13:01:29;-16261.94;;;-139.71;79.01
3598;BME280;1813;52.016;8.714;2024-02-21T13:04:02;-16261.94;;;-139.71;79.00
3598;BME280;1813;52.016;8.714;2024-02-21T13:06:36;-16261.94;;;-139.71;79.11
3598;BME280;1813;52.016;8.714;2024-02-21T13:09:09;-16261.94;;;-139.71;79.96
3598;BME280;1813;52.016;8.714;2024-02-21T13:11:44;-16261.94;;;-139.71;80.50
3598;BME280;1813;52.016;8.714;2024-02-21T13:14:20;-16261.94;;;-139.71;80.87
3598;BME280;1813;52.016;8.714;2024-02-21T13:16:53;-16261.94;;;-139.71;81.29
3598;BME280;1813;52.016;8.714;2024-02-21T13:19:26;-16261.94;;;-139.71;81.44
3598;BME280;1813;52.016;8.714;2024-02-21T13:22:00;-16261.94;;;-139.71;81.89
3598;BME280;1813;52.016;8.714;2024-02-21T13:24:33;-16261.94;;;-139.71;81.70
3598;BME280;1813;52.016;8.714;2024-02-21T13:27:06;-16261.94;;;-139.71;81.52